Time;durP1;ratioP1;P1;durP2;ratioP2;P2;SDS_P1;SDS_P2;PMS_P1;PMS_P2;Temp;Humidity;BMP_temperature;BMP_pressure;BME280_temperature;BME280_humidity;BME280_pressure;Samples;Min_cycle;Max_cycle;Signal;HPM_P1;HPM_P2
2020/12/24 00:00:31;;;;;;;1.88;0.90;;;10.50;99.90;;;;;;5069866;28;20500;-50
2020/12/24 00:02:57;;;;;;;4.20;1.30;;;10.50;99.90;;;;;;5055079;28;20404;-50
2020/12/24 00:05:24;;;;;;;1.00;0.90;;;10.50;99.90;;;;;;5007124;28;157834;-50
2020/12/24 00:07:50;;;;;;;1.52;1.25;;;10.50;99.90;;;;;;5027795;28;20045;-50
2020/12/24 00:10:17;;;;;;;4.32;1.27;;;10.50;99.90;;;;;;5029909;28;20045;-50
2020/12/24 00:12:44;;;;;;;2.35;1.10;;;10.50;99.90;;;;;;5027342;28;20053;-50
2020/12/24 00:15:10;;;;;;;2.45;1.42;;;10.50;99.90;;;;;;5022425;28;20037;-50
2020/12/24 00:17:38;;;;;;;1.90;1.30;;;10.50;99.90;;;;;;5028218;28;20137;-50
2020/12/24 00:20:05;;;;;;;2.35;1.20;;;10.50;99.90;;;;;;5036636;28;20074;-50
2020/12/24 00:22:33;;;;;;;3.67;1.42;;;10.50;99.90;;;;;;5035692;28;20379;-50
2020/12/24 00:24:59;;;;;;;2.75;1.33;;;10.50;99.90;;;;;;5029712;28;20065;-51
2020/12/24 00:27:26;;;;;;;4.40;1.67;;;10.50;99.90;;;;;;5022166;28;20052;-50
2020/12/24 00:29:53;;;;;;;2.95;1.08;;;10.50;99.90;;;;;;5030678;28;20052;-50
2020/12/24 00:32:19;;;;;;;3.60;0.90;;;10.50;99.90;;;;;;5041967;28;20055;-51
2020/12/24 00:34:46;;;;;;;1.65;1.55;;;10.50;99.90;;;;;;5031105;28;20072;-50
2020/12/24 00:37:13;;;;;;;1.92;1.27;;;10.50;99.90;;;;;;5029428;28;20061;-51
2020/12/24 00:39:39;;;;;;;2.70;0.80;;;10.50;99.90;;;;;;5030442;28;20041;-50
2020/12/24 00:42:06;;;;;;;2.00;0.80;;;10.50;99.90;;;;;;5031936;28;20065;-50
2020/12/24 00:44:32;;;;;;;2.22;0.70;;;10.50;99.90;;;;;;5033138;28;20049;-50
2020/12/24 00:46:59;;;;;;;3.38;1.25;;;10.50;99.90;;;;;;5031640;28;20053;-50
2020/12/24 00:49:26;;;;;;;2.15;0.90;;;10.50;99.90;;;;;;5038388;28;20063;-50
2020/12/24 00:51:52;;;;;;;1.40;0.80;;;10.50;99.90;;;;;;5034789;28;20037;-50
2020/12/24 00:54:19;;;;;;;1.05;0.70;;;10.50;99.90;;;;;;5035670;28;20049;-50
2020/12/24 00:56:45;;;;;;;1.30;0.63;;;10.50;99.90;;;;;;5029455;28;20041;-51
2020/12/24 00:59:13;;;;;;;1.67;0.90;;;10.50;99.90;;;;;;5034347;28;20053;-50
2020/12/24 01:01:40;;;;;;;5.93;1.02;;;10.50;99.90;;;;;;5031771;28;20418;-50
2020/12/24 01:04:06;;;;;;;5.95;0.80;;;10.50;99.90;;;;;;5036233;28;20049;-50
2020/12/24 01:06:32;;;;;;;2.03;1.00;;;10.50;99.90;;;;;;5032471;28;20049;-50
2020/12/24 01:08:59;;;;;;;1.98;0.90;;;10.40;99.90;;;;;;5030956;28;20065;-50
2020/12/24 01:11:30;;;;;;;1.35;1.25;;;10.40;99.90;;;;;;5024210;28;20049;-50
2020/12/24 01:13:57;;;;;;;1.50;1.10;;;10.40;99.90;;;;;;5033448;28;20049;-52
2020/12/24 01:16:24;;;;;;;2.45;1.05;;;10.40;99.90;;;;;;5032204;28;20052;-51
2020/12/24 01:18:57;;;;;;;3.13;1.13;;;10.30;99.90;;;;;;5030386;28;20053;-50
2020/12/24 01:21:24;;;;;;;2.60;1.45;;;10.30;99.90;;;;;;5031619;28;20056;-52
2020/12/24 01:23:50;;;;;;;3.70;1.00;;;10.30;99.90;;;;;;5030592;28;20481;-50
2020/12/24 01:26:17;;;;;;;2.13;1.00;;;10.30;99.90;;;;;;5030946;28;20050;-52
2020/12/24 01:28:44;;;;;;;0.80;0.80;;;10.30;99.90;;;;;;5032268;28;20053;-51
2020/12/24 01:31:10;;;;;;;2.17;0.82;;;10.30;99.90;;;;;;5031400;28;20406;-51
2020/12/24 01:33:37;;;;;;;4.70;1.05;;;10.30;99.90;;;;;;5028752;28;20091;-51
2020/12/24 01:36:04;;;;;;;2.10;1.08;;;10.30;99.90;;;;;;5024890;28;20058;-51
2020/12/24 01:38:31;;;;;;;2.97;1.10;;;10.20;99.90;;;;;;5030783;28;20049;-51
2020/12/24 01:41:00;;;;;;;3.13;2.03;;;10.20;99.90;;;;;;5028885;28;20053;-51
2020/12/24 01:43:27;;;;;;;1.33;1.23;;;10.20;99.90;;;;;;5031331;28;20057;-51
2020/12/24 01:45:55;;;;;;;2.08;1.08;;;10.20;99.90;;;;;;5031205;28;20486;-51
2020/12/24 01:48:23;;;;;;;3.03;1.52;;;10.20;99.90;;;;;;5039362;28;20065;-52
2020/12/24 01:50:50;;;;;;;2.15;1.95;;;10.20;99.90;;;;;;5029785;28;20398;-50
2020/12/24 01:53:22;;;;;;;2.22;1.83;;;10.10;99.90;;;;;;5027673;28;20120;-50
2020/12/24 01:55:49;;;;;;;2.53;2.13;;;10.10;99.90;;;;;;5031332;28;20057;-50
2020/12/24 01:58:17;;;;;;;2.90;2.42;;;10.10;99.90;;;;;;5025069;28;20045;-52
2020/12/24 02:00:47;;;;;;;3.13;1.95;;;10.10;99.90;;;;;;5030216;28;20045;-51
2020/12/24 02:03:15;;;;;;;2.58;1.73;;;10.00;99.90;;;;;;5028800;28;20053;-51
2020/12/24 02:05:42;;;;;;;2.97;2.33;;;10.00;99.90;;;;;;5030252;28;20417;-51
2020/12/24 02:08:10;;;;;;;2.97;1.75;;;9.90;99.90;;;;;;5030159;28;20068;-51
2020/12/24 02:10:37;;;;;;;2.83;2.17;;;9.90;99.90;;;;;;5028536;28;20049;-51
2020/12/24 02:13:04;;;;;;;2.67;1.95;;;9.90;99.90;;;;;;5031637;28;20048;-51
2020/12/24 02:15:30;;;;;;;4.22;2.63;;;9.90;99.90;;;;;;5032227;28;20422;-50
2020/12/24 02:17:57;;;;;;;2.65;2.20;;;9.80;99.90;;;;;;5031035;28;20056;-50
2020/12/24 02:20:23;;;;;;;3.05;2.00;;;9.80;99.90;;;;;;5024622;28;20045;-50
2020/12/24 02:22:50;;;;;;;2.20;1.92;;;9.80;99.90;;;;;;5029796;28;20049;-51
2020/12/24 02:25:17;;;;;;;2.10;2.00;;;9.80;99.90;;;;;;5028857;28;20050;-50
2020/12/24 02:27:43;;;;;;;2.28;1.85;;;9.80;99.90;;;;;;5029910;28;20049;-51
2020/12/24 02:30:10;;;;;;;1.75;1.60;;;9.80;99.90;;;;;;5031679;28;20395;-51
2020/12/24 02:32:37;;;;;;;2.08;1.98;;;9.70;99.90;;;;;;5024722;28;20394;-50
2020/12/24 02:35:04;;;;;;;1.90;1.80;;;9.70;99.90;;;;;;5028735;28;20041;-51
2020/12/24 02:37:31;;;;;;;3.45;2.13;;;9.70;99.90;;;;;;5029543;28;20402;-51
2020/12/24 02:39:58;;;;;;;2.83;2.03;;;9.70;99.90;;;;;;5027064;28;20392;-50
2020/12/24 02:42:24;;;;;;;2.22;2.03;;;9.70;99.90;;;;;;5026547;28;20053;-50
2020/12/24 02:44:51;;;;;;;2.03;1.90;;;9.70;99.90;;;;;;5028883;28;20049;-51
2020/12/24 02:47:18;;;;;;;1.75;1.63;;;9.70;99.90;;;;;;5030542;28;20049;-51
2020/12/24 02:50:00;;;;;;;2.38;1.73;;;9.70;99.90;;;;;;5030054;28;20046;-51
2020/12/24 02:52:27;;;;;;;1.50;1.40;;;9.70;99.90;;;;;;5031562;28;20045;-50
2020/12/24 02:54:53;;;;;;;1.60;1.15;;;9.70;99.90;;;;;;5023884;28;20495;-50
2020/12/24 02:57:20;;;;;;;1.42;0.90;;;9.70;99.90;;;;;;5029715;28;20042;-51
2020/12/24 03:00:05;;;;;;;0.70;0.70;;;9.70;99.90;;;;;;5028184;28;20046;-50
2020/12/24 03:02:31;;;;;;;1.88;0.70;;;9.70;99.90;;;;;;5031308;28;20478;-50
2020/12/24 03:04:58;;;;;;;0.80;0.52;;;9.70;99.90;;;;;;5026825;28;20513;-50
2020/12/24 03:07:24;;;;;;;0.47;0.47;;;9.70;99.90;;;;;;5031003;28;20143;-50
2020/12/24 03:09:53;;;;;;;1.20;0.40;;;9.70;99.90;;;;;;5027044;28;20037;-50
2020/12/24 03:12:24;;;;;;;0.35;0.32;;;9.70;99.90;;;;;;5029669;28;20044;-53
2020/12/24 03:14:52;;;;;;;0.45;0.30;;;9.80;99.90;;;;;;5030729;28;20068;-50
2020/12/24 03:17:19;;;;;;;0.30;0.20;;;9.80;99.90;;;;;;5022603;28;20054;-50
2020/12/24 03:19:47;;;;;;;0.10;0.10;;;9.80;99.90;;;;;;5030223;28;20502;-51
2020/12/24 03:22:14;;;;;;;1.00;0.17;;;9.80;99.90;;;;;;5029119;28;20064;-51
2020/12/24 03:24:41;;;;;;;0.22;0.15;;;9.80;99.90;;;;;;5029971;28;20422;-50
2020/12/24 03:27:07;;;;;;;0.40;0.10;;;9.90;99.90;;;;;;5028666;28;20057;-52
2020/12/24 03:29:34;;;;;;;0.10;0.10;;;9.80;99.90;;;;;;5033485;28;20049;-51
2020/12/24 03:32:01;;;;;;;1.23;0.10;;;9.90;99.90;;;;;;5027699;28;20041;-50
2020/12/24 03:34:28;;;;;;;0.30;0.20;;;9.90;99.90;;;;;;5029909;28;20120;-51
2020/12/24 03:36:54;;;;;;;0.57;0.40;;;9.90;99.90;;;;;;5027962;28;20051;-50
2020/12/24 03:39:20;;;;;;;0.30;0.30;;;9.90;99.90;;;;;;5028654;28;20049;-51
2020/12/24 03:41:47;;;;;;;0.22;0.20;;;9.90;99.90;;;;;;5030013;28;20056;-52
2020/12/24 03:44:13;;;;;;;1.75;0.20;;;9.90;99.90;;;;;;5038432;28;20049;-52
2020/12/24 03:46:40;;;;;;;0.95;0.30;;;9.90;99.90;;;;;;5029889;28;20049;-51
2020/12/24 03:49:06;;;;;;;2.25;0.30;;;9.90;99.90;;;;;;5028610;28;21682;-50
2020/12/24 03:51:33;;;;;;;1.00;0.30;;;9.90;99.90;;;;;;5030335;28;20092;-50
2020/12/24 03:53:59;;;;;;;2.58;0.40;;;9.90;99.90;;;;;;5025012;28;20694;-50
2020/12/24 03:56:26;;;;;;;1.25;1.15;;;9.90;99.90;;;;;;5021753;28;20053;-52
2020/12/24 03:58:52;;;;;;;0.95;0.55;;;9.90;99.90;;;;;;5031764;28;20482;-50
2020/12/24 04:01:19;;;;;;;1.13;0.40;;;9.90;99.90;;;;;;5031550;28;20061;-50
2020/12/24 04:03:45;;;;;;;0.22;0.20;;;9.90;99.90;;;;;;5030865;28;20052;-51
2020/12/24 04:06:12;;;;;;;0.40;0.25;;;9.90;99.90;;;;;;5029791;28;20060;-50
2020/12/24 04:08:39;;;;;;;1.30;0.60;;;9.90;99.90;;;;;;5034008;28;20049;-51
2020/12/24 04:11:05;;;;;;;0.50;0.50;;;9.90;99.90;;;;;;5032804;28;20048;-50
2020/12/24 04:13:31;;;;;;;0.30;0.30;;;9.90;99.90;;;;;;5018090;28;20417;-51
2020/12/24 04:15:58;;;;;;;0.35;0.20;;;10.00;99.90;;;;;;5031630;28;20050;-51
2020/12/24 04:18:24;;;;;;;0.50;0.45;;;10.00;99.90;;;;;;5033182;28;20053;-50
2020/12/24 04:20:57;;;;;;;0.93;0.60;;;10.00;99.90;;;;;;5030863;28;20888;-50
2020/12/24 04:23:23;;;;;;;0.70;0.65;;;10.00;99.90;;;;;;5031021;28;20494;-50
2020/12/24 04:25:50;;;;;;;1.30;1.05;;;9.90;99.90;;;;;;5033568;28;20049;-50
2020/12/24 04:28:16;;;;;;;3.53;1.30;;;9.80;99.90;;;;;;5020959;28;20050;-51
2020/12/24 04:30:43;;;;;;;1.88;1.45;;;9.80;99.90;;;;;;5031973;28;20694;-50
2020/12/24 04:33:10;;;;;;;1.50;1.40;;;9.70;99.90;;;;;;5031349;28;20045;-50
2020/12/24 04:35:37;;;;;;;1.98;0.60;;;9.70;99.90;;;;;;5028981;28;20050;-50
2020/12/24 04:38:04;;;;;;;1.92;0.80;;;9.80;99.90;;;;;;5027110;28;20498;-50
2020/12/24 04:40:33;;;;;;;1.10;1.00;;;9.80;99.90;;;;;;5037637;28;20060;-51
2020/12/24 04:43:01;;;;;;;4.38;1.25;;;9.70;99.90;;;;;;5031572;28;20076;-50
2020/12/24 04:45:30;;;;;;;0.93;0.80;;;9.70;99.90;;;;;;5044294;28;20062;-51
2020/12/24 04:47:58;;;;;;;0.77;0.60;;;9.80;99.90;;;;;;5031129;28;20467;-50
2020/12/24 04:50:26;;;;;;;0.50;0.50;;;9.80;99.90;;;;;;5020805;28;20060;-50
2020/12/24 04:52:57;;;;;;;1.20;0.52;;;9.90;99.90;;;;;;5031522;28;20558;-50
2020/12/24 04:55:23;;;;;;;0.57;0.50;;;10.00;99.90;;;;;;5032195;28;20054;-51
2020/12/24 04:57:50;;;;;;;1.05;0.50;;;10.00;99.90;;;;;;5030658;28;20768;-50
2020/12/24 05:00:18;;;;;;;1.15;0.40;;;10.00;99.90;;;;;;5031404;28;20470;-50
2020/12/24 05:02:59;;;;;;;0.70;0.50;;;10.00;99.90;;;;;;5033503;28;20410;-50
2020/12/24 05:05:25;;;;;;;4.13;0.60;;;10.10;99.90;;;;;;5032147;28;20057;-50
2020/12/24 05:07:52;;;;;;;0.57;0.43;;;10.10;99.90;;;;;;5031506;28;20401;-50
2020/12/24 05:10:18;;;;;;;0.40;0.35;;;10.10;99.90;;;;;;5032975;28;20065;-50
2020/12/24 05:12:45;;;;;;;1.58;0.43;;;10.10;99.90;;;;;;5022445;28;20053;-50
2020/12/24 05:15:29;;;;;;;0.50;0.40;;;10.10;99.90;;;;;;5032045;28;20061;-50
2020/12/24 05:18:18;;;;;;;0.68;0.30;;;10.10;99.90;;;;;;5028778;28;20045;-51
2020/12/24 05:20:45;;;;;;;0.50;0.40;;;10.20;99.90;;;;;;5038180;28;20050;-50
2020/12/24 05:23:17;;;;;;;0.63;0.20;;;10.20;99.90;;;;;;5032744;28;20057;-50
2020/12/24 05:25:45;;;;;;;1.38;0.28;;;10.30;99.90;;;;;;5037294;28;20443;-51
2020/12/24 05:28:25;;;;;;;1.20;0.20;;;10.30;99.90;;;;;;5027202;28;20050;-50
2020/12/24 05:30:55;;;;;;;0.13;0.10;;;10.40;99.90;;;;;;5029249;28;20406;-50
2020/12/24 05:33:28;;;;;;;0.30;0.20;;;10.40;99.90;;;;;;5031863;28;20390;-50
2020/12/24 05:36:16;;;;;;;0.40;0.10;;;10.40;99.90;;;;;;5030523;28;20402;-51
2020/12/24 05:38:43;;;;;;;2.40;0.13;;;10.40;99.90;;;;;;5015903;28;20050;-51
2020/12/24 05:41:32;;;;;;;0.90;0.10;;;10.30;99.90;;;;;;5029768;28;20050;-51
2020/12/24 05:44:06;;;;;;;0.22;0.20;;;10.40;99.90;;;;;;5031637;28;20056;-50
2020/12/24 05:46:42;;;;;;;0.10;0.10;;;10.50;99.90;;;;;;5031155;28;20060;-50
2020/12/24 05:49:19;;;;;;;0.95;0.10;;;10.60;99.90;;;;;;5031174;28;20514;-50
2020/12/24 05:52:05;;;;;;;0.20;0.10;;;10.60;99.90;;;;;;5029934;28;20049;-51
2020/12/24 05:54:34;;;;;;;0.10;0.03;;;10.60;99.90;;;;;;5030654;28;20042;-50
2020/12/24 05:57:02;;;;;;;1.80;0.10;;;10.70;99.90;;;;;;5019322;28;20050;-51
2020/12/24 05:59:31;;;;;;;0.22;0.10;;;11.00;99.90;;;;;;5022465;28;20548;-50
2020/12/24 06:02:12;;;;;;;0.25;0.25;;;11.10;99.90;;;;;;5022266;28;20049;-54
2020/12/24 06:04:45;;;;;;;0.10;0.10;;;11.00;99.90;;;;;;5032395;28;20049;-51
2020/12/24 06:07:21;;;;;;;1.52;0.10;;;11.00;99.90;;;;;;5030710;28;20132;-50
2020/12/24 06:09:51;;;;;;;0.70;0.10;;;10.90;99.90;;;;;;5031504;28;20796;-50
2020/12/24 06:12:20;;;;;;;0.28;0.10;;;10.90;99.90;;;;;;5035445;28;20056;-50
2020/12/24 06:14:53;;;;;;;0.10;0.10;;;10.90;99.90;;;;;;5040790;28;20374;-50
2020/12/24 06:17:21;;;;;;;0.60;0.20;;;10.90;99.90;;;;;;5029892;28;20080;-50
2020/12/24 06:19:48;;;;;;;0.75;0.10;;;10.90;99.90;;;;;;5023847;28;20045;-51
2020/12/24 06:22:17;;;;;;;0.13;0.10;;;11.00;99.90;;;;;;5038395;28;20045;-48
2020/12/24 06:24:45;;;;;;;0.08;0.00;;;11.00;99.90;;;;;;5031471;28;20077;-51
2020/12/24 06:27:21;;;;;;;0.68;0.28;;;11.00;99.90;;;;;;5012956;28;20402;-50
2020/12/24 06:29:50;;;;;;;0.50;0.10;;;11.20;99.90;;;;;;5030113;28;20452;-52
2020/12/24 06:32:19;;;;;;;0.10;0.10;;;11.20;99.90;;;;;;5029439;28;20057;-50
2020/12/24 06:34:46;;;;;;;1.20;0.10;;;11.30;99.90;;;;;;5030342;28;20069;-50
2020/12/24 06:37:20;;;;;;;0.10;0.10;;;11.30;99.90;;;;;;5027038;28;20049;-50
2020/12/24 06:39:53;;;;;;;1.65;0.10;;;11.30;99.90;;;;;;5027481;28;20046;-50
2020/12/24 06:42:40;;;;;;;0.10;0.10;;;11.20;99.90;;;;;;5010959;28;20498;-50
2020/12/24 06:45:08;;;;;;;0.10;0.00;;;11.30;99.90;;;;;;5013729;28;20049;-51
2020/12/24 06:47:36;;;;;;;0.20;0.10;;;11.30;99.90;;;;;;5028835;28;20414;-50
2020/12/24 06:50:38;;;;;;;1.50;0.20;;;11.20;99.90;;;;;;5027857;28;20512;-50
2020/12/24 06:53:23;;;;;;;0.88;0.10;;;11.10;99.90;;;;;;5020840;28;20048;-50
2020/12/24 06:56:21;;;;;;;0.40;0.30;;;11.20;99.90;;;;;;5026657;28;20064;-50
2020/12/24 06:58:54;;;;;;;0.25;0.20;;;11.00;99.90;;;;;;5030555;28;20402;-50
2020/12/24 07:01:32;;;;;;;0.40;0.20;;;10.90;99.90;;;;;;5020368;28;20042;-50
2020/12/24 07:04:00;;;;;;;1.58;0.20;;;11.00;99.90;;;;;;5021897;28;20045;-50
2020/12/24 07:06:43;;;;;;;0.20;0.10;;;11.00;99.90;;;;;;5020672;28;20046;-50
2020/12/24 07:09:11;;;;;;;0.10;0.10;;;11.10;99.90;;;;;;5027130;28;20045;-50
2020/12/24 07:11:40;;;;;;;0.28;0.10;;;11.20;99.90;;;;;;5029443;28;20037;-50
2020/12/24 07:14:23;;;;;;;0.55;0.10;;;11.20;99.90;;;;;;5030386;28;20037;-50
2020/12/24 07:16:52;;;;;;;0.50;0.30;;;11.20;99.90;;;;;;5023621;28;20057;-49
2020/12/24 07:19:19;;;;;;;1.42;0.10;;;11.20;99.90;;;;;;5030421;28;20052;-50
2020/12/24 07:21:53;;;;;;;0.82;0.20;;;11.20;99.90;;;;;;5029567;28;20041;-50
2020/12/24 07:24:28;;;;;;;1.40;0.20;;;11.20;99.90;;;;;;5028638;28;20057;-50
2020/12/24 07:26:59;;;;;;;0.63;0.10;;;11.30;99.90;;;;;;5027642;28;20467;-49
2020/12/24 07:29:27;;;;;;;1.38;0.10;;;11.30;99.90;;;;;;5030424;28;20463;-50
2020/12/24 07:31:56;;;;;;;0.32;0.20;;;11.30;99.90;;;;;;5032855;28;20041;-50
2020/12/24 07:34:28;;;;;;;0.10;0.10;;;11.40;99.90;;;;;;5033053;28;20046;-50
2020/12/24 07:36:55;;;;;;;0.20;0.10;;;11.30;99.90;;;;;;5033004;28;20481;-49
2020/12/24 07:39:22;;;;;;;0.20;0.20;;;11.40;99.90;;;;;;5032435;28;20048;-51
2020/12/24 07:41:49;;;;;;;0.20;0.10;;;11.50;99.90;;;;;;5021217;28;20060;-50
2020/12/24 07:44:17;;;;;;;0.73;0.08;;;11.50;99.90;;;;;;5027561;28;20045;-50
2020/12/24 07:46:48;;;;;;;0.15;0.10;;;11.60;99.90;;;;;;5034534;28;20057;-51
2020/12/24 07:49:15;;;;;;;0.47;0.10;;;11.60;99.90;;;;;;5032538;28;20402;-49
2020/12/24 07:51:41;;;;;;;1.48;0.10;;;11.60;99.90;;;;;;5032576;28;20422;-49
2020/12/24 07:54:15;;;;;;;0.22;0.10;;;11.50;99.90;;;;;;5033932;28;20045;-49
2020/12/24 07:56:45;;;;;;;;;;;11.50;99.90;;;;;;5024250;28;20060;-49
2020/12/24 07:59:15;;;;;;;1.75;0.10;;;11.50;99.90;;;;;;5013274;28;19925;-50
2020/12/24 08:01:42;;;;;;;0.20;0.10;;;11.50;99.90;;;;;;5010786;28;20066;-50
2020/12/24 08:04:08;;;;;;;0.30;0.00;;;11.50;99.90;;;;;;5004041;28;20050;-50
2020/12/24 08:06:36;;;;;;;0.20;0.05;;;11.50;99.90;;;;;;5010113;28;20458;-49
2020/12/24 08:09:17;;;;;;;0.10;0.10;;;11.50;99.90;;;;;;5013414;28;20042;-49
2020/12/24 08:11:58;;;;;;;0.00;0.00;;;11.60;99.90;;;;;;5013166;28;20037;-50
2020/12/24 08:14:29;;;;;;;0.10;0.10;;;11.70;99.90;;;;;;5006459;28;20057;-50
2020/12/24 08:17:24;;;;;;;0.47;0.10;;;11.70;99.90;;;;;;5012635;28;20062;-49
2020/12/24 08:20:12;;;;;;;0.25;0.10;;;11.70;99.90;;;;;;5010404;28;20077;-50
2020/12/24 08:23:02;;;;;;;1.88;0.10;;;11.60;99.90;;;;;;4996182;28;20056;-50
2020/12/24 08:25:29;;;;;;;0.15;0.10;;;11.60;99.90;;;;;;5005132;28;20050;-50
2020/12/24 08:27:57;;;;;;;0.25;0.10;;;11.60;99.90;;;;;;5004296;28;20057;-49
2020/12/24 08:30:43;;;;;;;0.20;0.10;;;11.60;99.90;;;;;;5011991;28;20054;-50
2020/12/24 08:33:09;;;;;;;1.38;0.15;;;11.60;99.90;;;;;;5010786;28;20304;-50
2020/12/24 08:35:36;;;;;;;0.40;0.20;;;11.70;99.90;;;;;;4998550;28;20041;-51
2020/12/24 08:38:10;;;;;;;0.20;0.10;;;11.70;99.90;;;;;;5009760;28;20046;-50
2020/12/24 08:40:37;;;;;;;0.13;0.10;;;11.70;99.90;;;;;;5002034;28;20502;-50
2020/12/24 08:43:07;;;;;;;0.30;0.20;;;11.80;99.90;;;;;;5004549;28;20538;-50
2020/12/24 08:45:42;;;;;;;0.43;0.30;;;11.80;99.90;;;;;;5010052;28;20053;-51
2020/12/24 08:48:11;;;;;;;0.75;0.20;;;11.90;99.90;;;;;;5005880;28;20153;-50
2020/12/24 08:50:40;;;;;;;0.45;0.13;;;11.90;99.90;;;;;;5007389;28;20050;-50
2020/12/24 08:53:21;;;;;;;1.27;0.10;;;11.90;99.90;;;;;;5013001;28;20046;-50
2020/12/24 08:55:47;;;;;;;0.65;0.10;;;11.90;99.90;;;;;;5010988;28;20472;-49
2020/12/24 08:58:14;;;;;;;1.65;0.10;;;11.80;99.90;;;;;;5012452;28;20361;-50
2020/12/24 09:00:41;;;;;;;1.20;0.20;;;11.80;99.90;;;;;;5008550;28;20046;-50
2020/12/24 09:03:23;;;;;;;0.10;0.00;;;11.70;99.90;;;;;;5001436;28;20042;-49
2020/12/24 09:05:50;;;;;;;1.05;0.10;;;11.70;99.90;;;;;;5010732;28;20054;-50
2020/12/24 09:08:27;;;;;;;0.82;0.10;;;11.70;99.90;;;;;;5011158;28;20459;-49
2020/12/24 09:10:54;;;;;;;0.20;0.10;;;11.70;99.90;;;;;;5004198;28;20431;-49
2020/12/24 09:13:21;;;;;;;1.35;0.20;;;11.60;99.90;;;;;;5008930;28;20057;-53
2020/12/24 09:15:47;;;;;;;0.20;0.10;;;11.60;99.90;;;;;;5012078;28;20046;-50
2020/12/24 09:18:16;;;;;;;0.55;0.20;;;11.50;99.90;;;;;;5013097;28;20049;-50
2020/12/24 09:20:43;;;;;;;0.70;0.30;;;11.50;99.90;;;;;;5011706;28;20057;-49
2020/12/24 09:23:13;;;;;;;0.70;0.40;;;11.40;99.90;;;;;;5008475;28;20462;-50
2020/12/24 09:25:43;;;;;;;1.00;0.30;;;11.40;99.90;;;;;;5002787;28;20054;-50
2020/12/24 09:28:26;;;;;;;0.52;0.20;;;11.40;99.90;;;;;;5012381;28;20510;-49
2020/12/24 09:30:57;;;;;;;2.15;0.38;;;11.40;99.90;;;;;;5009848;28;20463;-50
2020/12/24 09:33:25;;;;;;;0.30;0.20;;;11.40;99.90;;;;;;5011474;28;20042;-50
2020/12/24 09:35:52;;;;;;;1.17;0.30;;;11.40;99.90;;;;;;5009499;28;20423;-50
2020/12/24 09:38:21;;;;;;;0.63;0.40;;;11.50;99.90;;;;;;5011691;28;20119;-51
2020/12/24 09:40:48;;;;;;;0.30;0.20;;;11.50;99.90;;;;;;5010314;28;20050;-51
2020/12/24 09:43:15;;;;;;;1.38;0.30;;;11.50;99.90;;;;;;5010353;28;20057;-49
2020/12/24 09:45:41;;;;;;;1.45;0.50;;;11.50;99.90;;;;;;5005787;28;20392;-50
2020/12/24 09:48:09;;;;;;;1.75;0.30;;;11.50;99.90;;;;;;5006116;28;20125;-50
2020/12/24 09:50:37;;;;;;;6.38;2.55;;;11.50;99.90;;;;;;5012144;28;20046;-50
2020/12/24 09:53:04;;;;;;;24.15;8.88;;;11.40;99.90;;;;;;5007881;28;20550;-49
2020/12/24 09:55:31;;;;;;;17.42;7.15;;;11.40;99.90;;;;;;5011609;28;20132;-52
2020/12/24 09:57:58;;;;;;;2.22;0.90;;;11.40;99.90;;;;;;5008939;28;20042;-50
2020/12/24 10:00:24;;;;;;;1.85;0.70;;;11.30;99.90;;;;;;4996685;28;20053;-49
2020/12/24 10:02:51;;;;;;;5.97;1.98;;;11.30;99.90;;;;;;5010234;28;20149;-51
2020/12/24 10:05:17;;;;;;;3.42;0.40;;;11.30;99.90;;;;;;5010106;28;20104;-49
2020/12/24 10:07:50;;;;;;;0.32;0.22;;;11.30;99.90;;;;;;5010552;28;20045;-49
2020/12/24 10:10:17;;;;;;;1.15;0.20;;;11.30;99.90;;;;;;5010183;28;20591;-49
2020/12/24 10:12:44;;;;;;;3.00;0.40;;;11.20;99.90;;;;;;5010729;28;20372;-50
2020/12/24 10:15:11;;;;;;;1.48;0.40;;;11.20;99.90;;;;;;5008655;28;20104;-51
2020/12/24 10:17:37;;;;;;;0.70;0.60;;;11.20;99.90;;;;;;4997565;28;20050;-50
2020/12/24 10:20:04;;;;;;;1.13;0.60;;;11.20;99.90;;;;;;5010032;28;20053;-51
2020/12/24 10:22:30;;;;;;;1.55;0.30;;;11.10;99.90;;;;;;5002468;28;20058;-54
2020/12/24 10:24:57;;;;;;;0.95;0.20;;;11.00;99.90;;;;;;5010221;28;20073;-50
2020/12/24 10:27:23;;;;;;;0.30;0.30;;;11.00;99.90;;;;;;5009078;28;20045;-51
2020/12/24 10:29:49;;;;;;;1.05;0.40;;;10.90;99.90;;;;;;5009325;28;20064;-51
2020/12/24 10:32:16;;;;;;;0.93;0.30;;;10.80;99.90;;;;;;5010014;28;20053;-51
2020/12/24 10:34:42;;;;;;;3.75;0.50;;;10.80;99.90;;;;;;5009040;28;20388;-51
2020/12/24 10:37:09;;;;;;;1.25;1.15;;;10.80;99.90;;;;;;5009057;28;20100;-51
2020/12/24 10:39:36;;;;;;;2.00;0.60;;;10.70;99.90;;;;;;5008257;28;20527;-51
2020/12/24 10:42:02;;;;;;;0.50;0.30;;;10.60;99.90;;;;;;5004675;28;20082;-51
2020/12/24 10:44:29;;;;;;;1.88;0.40;;;10.60;99.90;;;;;;5005929;28;20057;-53
2020/12/24 10:46:57;;;;;;;1.48;0.40;;;10.60;99.90;;;;;;5004505;28;20073;-51
2020/12/24 10:49:24;;;;;;;0.50;0.30;;;10.60;99.90;;;;;;5005694;28;20498;-51
2020/12/24 10:51:51;;;;;;;1.58;0.30;;;10.50;99.90;;;;;;5010965;28;20049;-52
2020/12/24 10:54:18;;;;;;;0.50;0.35;;;10.50;99.90;;;;;;4996693;28;20053;-50
2020/12/24 10:56:46;;;;;;;0.50;0.40;;;10.50;99.90;;;;;;5009072;28;20463;-51
2020/12/24 10:59:14;;;;;;;1.15;0.38;;;10.40;99.90;;;;;;5010890;28;20054;-50
2020/12/24 11:01:47;;;;;;;2.58;0.30;;;10.50;99.90;;;;;;5008819;28;20054;-51
2020/12/24 11:04:14;;;;;;;0.40;0.40;;;10.40;99.90;;;;;;4999840;28;20068;-52
2020/12/24 11:06:43;;;;;;;0.93;0.40;;;10.40;99.90;;;;;;5014411;28;20620;-51
2020/12/24 11:09:11;;;;;;;0.77;0.50;;;10.50;99.90;;;;;;5015637;28;20085;-52
2020/12/24 11:11:38;;;;;;;1.73;0.90;;;10.50;99.90;;;;;;5006436;28;20049;-50
2020/12/24 11:14:05;;;;;;;1.48;0.50;;;10.50;99.90;;;;;;5005953;28;20050;-51
2020/12/24 11:16:32;;;;;;;0.88;0.60;;;10.50;99.90;;;;;;5003644;28;20061;-52
2020/12/24 11:18:58;;;;;;;0.90;0.80;;;10.50;99.90;;;;;;5003387;28;20053;-50
2020/12/24 11:21:30;;;;;;;2.33;0.80;;;10.50;99.90;;;;;;5008571;28;20092;-50
2020/12/24 11:23:56;;;;;;;0.65;0.50;;;10.50;99.90;;;;;;5006968;28;20061;-51
2020/12/24 11:26:24;;;;;;;3.83;1.08;;;10.50;99.90;;;;;;4996472;28;20053;-50
2020/12/24 11:28:52;;;;;;;5.93;0.60;;;10.50;99.90;;;;;;5008973;28;20058;-50
2020/12/24 11:31:23;;;;;;;2.47;0.68;;;10.50;99.90;;;;;;5007760;28;20068;-51
2020/12/24 11:33:51;;;;;;;2.55;0.73;;;10.50;99.90;;;;;;5000399;28;20070;-50
2020/12/24 11:36:18;;;;;;;0.43;0.40;;;10.50;99.90;;;;;;5008631;28;20054;-51
2020/12/24 11:38:45;;;;;;;0.50;0.40;;;10.50;99.90;;;;;;5009846;28;20042;-51
2020/12/24 11:41:18;;;;;;;2.05;0.40;;;10.50;99.90;;;;;;5006736;28;20081;-50
2020/12/24 11:43:45;;;;;;;0.70;0.52;;;10.60;99.90;;;;;;5010290;28;20152;-51
2020/12/24 11:46:13;;;;;;;1.45;0.60;;;10.70;99.90;;;;;;5008658;28;20136;-51
2020/12/24 11:48:40;;;;;;;3.03;0.40;;;10.70;99.90;;;;;;5007880;28;20295;-51
2020/12/24 11:51:09;;;;;;;3.35;0.40;;;10.70;99.90;;;;;;5009978;28;20089;-50
2020/12/24 11:53:40;;;;;;;5.30;0.52;;;10.70;99.90;;;;;;5009425;28;20038;-52
2020/12/24 11:56:11;;;;;;;3.15;0.40;;;10.80;99.90;;;;;;5007365;28;20050;-50
2020/12/24 11:58:38;;;;;;;0.93;0.30;;;10.80;99.90;;;;;;4988814;28;20046;-52
2020/12/24 12:01:05;;;;;;;0.80;0.38;;;10.80;99.90;;;;;;4993430;28;20101;-50
2020/12/24 12:03:31;;;;;;;4.00;0.20;;;10.80;99.90;;;;;;5008114;28;20053;-52
2020/12/24 12:05:58;;;;;;;1.17;0.25;;;10.80;99.90;;;;;;5008890;28;20054;-50
2020/12/24 12:08:24;;;;;;;0.32;0.30;;;10.90;99.90;;;;;;5009060;28;20104;-50
2020/12/24 12:10:51;;;;;;;1.27;0.50;;;10.90;99.90;;;;;;5008656;28;20045;-50
2020/12/24 12:13:17;;;;;;;3.28;0.50;;;11.00;99.90;;;;;;5000307;28;20065;-50
2020/12/24 12:15:44;;;;;;;3.92;0.30;;;10.90;99.90;;;;;;5002437;28;20482;-50
2020/12/24 12:18:10;;;;;;;3.22;0.30;;;10.90;99.90;;;;;;5014051;28;20080;-52
2020/12/24 12:20:41;;;;;;;1.95;0.20;;;10.90;99.90;;;;;;5008216;28;20054;-50
2020/12/24 12:23:07;;;;;;;1.55;0.30;;;11.00;99.90;;;;;;5006606;28;20057;-51
2020/12/24 12:25:34;;;;;;;0.40;0.40;;;11.00;99.90;;;;;;5011507;28;20157;-50
2020/12/24 12:28:00;;;;;;;0.93;0.38;;;11.10;99.90;;;;;;5011966;28;20058;-50
2020/12/24 12:30:27;;;;;;;1.83;0.32;;;11.00;99.90;;;;;;5012853;28;20046;-50
2020/12/24 12:32:54;;;;;;;1.60;0.20;;;11.10;99.90;;;;;;5013636;28;20042;-50
2020/12/24 12:35:20;;;;;;;2.47;0.30;;;11.00;99.90;;;;;;5011479;28;20057;-49
2020/12/24 12:37:47;;;;;;;0.52;0.30;;;11.10;99.90;;;;;;5014381;28;20046;-50
2020/12/24 12:40:13;;;;;;;3.40;0.85;;;11.10;99.90;;;;;;5010605;28;20053;-49
2020/12/24 12:42:40;;;;;;;0.95;0.40;;;11.10;99.90;;;;;;5009781;28;20046;-49
2020/12/24 12:45:07;;;;;;;0.70;0.35;;;11.20;99.90;;;;;;5005038;28;20050;-49
2020/12/24 12:47:37;;;;;;;1.92;0.30;;;11.20;99.90;;;;;;5009317;28;20108;-48
2020/12/24 12:50:06;;;;;;;0.50;0.30;;;11.30;99.90;;;;;;5013097;28;20491;-51
2020/12/24 12:52:33;;;;;;;2.17;0.38;;;11.30;99.90;;;;;;5010201;28;20049;-49
2020/12/24 12:54:59;;;;;;;0.60;0.40;;;11.40;99.90;;;;;;5012174;28;20112;-49
2020/12/24 12:57:26;;;;;;;2.35;0.40;;;11.30;99.90;;;;;;5011728;28;20050;-48